Terminal Aerodrome Forecast
Issued by NWS Jacksonville, FL

Home | Current Version | Previous Version | Text Only | Print | Product List | Glossary On
Versions: 1 2 3 4 5 6 7 8 9 10 11 12 13 14 15 16 17 18
605
FTUS42 KJAX 301720
TAFGNV
TAF
KGNV 301720Z 3018/3118 21007KT P6SM BKN060
     FM310300 19003KT P6SM SCT060 BKN250
     FM311000 19004KT 5SM BR VCTS SCT015 OVC050CB
     FM311400 21010G16KT P6SM VCTS SCT025 OVC050CB=

USA.gov is the U.S. government's official web portal to all federal, state and local government web resources and services.